»·PEaware :: N777RG KLAX-KSAN

N777RG :: KLAX-KSAN

FLIGHT INFORMATION

Flight Status: Arrived
Operator: Privately registered:
United States
More flights under this callsign
Pilot: Jone M. (10385)
Aircraft: CIRRUS SR-22
(SR22)
More flights by this aircraft type
Origin: KLAX Los Angeles Intl
United States
Destination: KSAN San Diego Intl-Lindbergh
United States
More flights between these airports :: More routes between these airports
Route: +
File this flight plan on PilotEdge
Remarks: ff
Altitude:
(Current/Filed)
0ft
Speed:
(Current/Filed)
0kts
Departed: 10-Sep-20 12:27 PM
Arrived: 10-Sep-20 01:06 PM
Distance/Time
Traveled:
95nm/0:39
Distance/Time
To Go:
Arrived

Flight Plot

Page will automatically refresh every two minutes.


Map Options




Map Legend


Flown Route
Filed Route
Departure Airport
Arrival Airport
Navaid (VOR, NDB)
Fix

Horizontal Profiles

Position Reports

Time Latitude Longitude Heading Altitude Ground
Speed
10-Sep-20 12:08 33.933142 -118.398552 263 113ft 0kts
10-Sep-20 12:09 33.933142 -118.398552 263 113ft 0kts
10-Sep-20 12:10 33.933142 -118.398552 263 113ft 0kts
10-Sep-20 12:11 33.933142 -118.398552 263 113ft 0kts
10-Sep-20 12:12 33.933142 -118.398552 263 113ft 0kts
10-Sep-20 12:13 33.933142 -118.398552 263 113ft 0kts
10-Sep-20 12:14 33.933142 -118.398552 263 113ft 0kts
10-Sep-20 12:15 33.933142 -118.398552 263 113ft 0kts
10-Sep-20 12:16 33.933142 -118.398552 263 113ft 0kts
10-Sep-20 12:17 33.933142 -118.398552 263 113ft 0kts
10-Sep-20 12:18 33.933150 -118.398582 318 113ft 0kts
10-Sep-20 12:19 33.933150 -118.398582 316 113ft 0kts
10-Sep-20 12:20 33.933311 -118.398693 352 113ft 3kts
10-Sep-20 12:21 33.934060 -118.398179 27 112ft 0kts
10-Sep-20 12:22 33.934724 -118.396541 83 110ft 14kts
10-Sep-20 12:23 33.935284 -118.391027 83 104ft 11kts
10-Sep-20 12:24 33.935817 -118.385847 84 101ft 17kts
10-Sep-20 12:25 33.936509 -118.382771 1 99ft 9kts
10-Sep-20 12:26 33.935680 -118.399814 264 380ft 116kts
10-Sep-20 12:27 33.923910 -118.431818 167 1668ft 136kts
10-Sep-20 12:28 33.885801 -118.410853 161 2219ft 164kts
10-Sep-20 12:29 33.841221 -118.392437 174 2270ft 171kts
10-Sep-20 12:30 33.801535 -118.367535 131 2719ft 160kts
10-Sep-20 12:31 33.772043 -118.331572 133 3651ft 153kts
10-Sep-20 12:32 33.743970 -118.290067 112 4013ft 170kts
10-Sep-20 12:33 33.723467 -118.239389 119 4349ft 166kts
10-Sep-20 12:34 33.699222 -118.192038 121 4735ft 166kts
10-Sep-20 12:35 33.674474 -118.144842 120 5109ft 167kts
10-Sep-20 12:36 33.652876 -118.095748 103 5434ft 167kts
10-Sep-20 12:37 33.640116 -118.041144 107 5545ft 174kts
10-Sep-20 12:38 33.613072 -117.993652 130 5540ft 174kts
10-Sep-20 12:39 33.578408 -117.953715 134 5534ft 170kts
10-Sep-20 12:40 33.547472 -117.911232 129 5531ft 168kts
10-Sep-20 12:41 33.516666 -117.868791 129 5529ft 168kts
10-Sep-20 12:42 33.485923 -117.826435 129 5526ft 168kts
10-Sep-20 12:43 33.455019 -117.783908 129 5522ft 169kts
10-Sep-20 12:44 33.424009 -117.741214 129 5517ft 170kts
10-Sep-20 12:45 33.391549 -117.699582 132 5512ft 171kts
10-Sep-20 12:46 33.358632 -117.658279 132 5507ft 172kts
10-Sep-20 12:47 33.325964 -117.616901 132 5503ft 172kts
10-Sep-20 12:48 33.293091 -117.574859 132 5500ft 173kts
10-Sep-20 12:49 33.259351 -117.533873 135 5500ft 172kts
10-Sep-20 12:50 33.224886 -117.494040 135 5501ft 172kts
10-Sep-20 12:51 33.190405 -117.454217 135 5503ft 172kts
10-Sep-20 12:52 33.155825 -117.414330 135 5505ft 172kts
10-Sep-20 12:53 33.119131 -117.377543 146 5508ft 172kts
10-Sep-20 12:54 33.078838 -117.346271 148 5508ft 173kts
10-Sep-20 12:55 33.033828 -117.325959 159 5453ft 176kts
10-Sep-20 12:56 32.987498 -117.305790 160 5065ft 171kts
10-Sep-20 12:57 32.942563 -117.287342 162 4510ft 167kts
10-Sep-20 12:58 32.903904 -117.270713 162 3970ft 142kts
10-Sep-20 12:59 32.863909 -117.254294 161 3828ft 152kts
10-Sep-20 13:00 32.826869 -117.232917 158 3156ft 139kts
10-Sep-20 13:01 32.791945 -117.215779 161 2191ft 138kts
10-Sep-20 13:02 32.756766 -117.196205 147 1288ft 133kts
10-Sep-20 13:04 32.739369 -117.166735 178 657ft 91kts
10-Sep-20 13:05 32.732687 -117.186025 287 15ft 43kts
10-Sep-20 13:06 32.733935 -117.188085 14 16ft 0kts
10-Sep-20 13:07 32.733405 -117.184387 103 16ft 15kts
10-Sep-20 13:08 32.732894 -117.179691 12 19ft 6kts
10-Sep-20 13:09 32.733495 -117.178722 10 19ft 0kts

Navigation Log

Ident Type
Flight plan parsing failed, navigation log unavailable